createdAt,value
2022-08-18T00:00:20.051Z,20.22
2022-08-18T00:04:34.973Z,20.21
2022-08-18T00:08:08.622Z,20.14
2022-08-18T00:11:51.412Z,20.14
2022-08-18T00:15:41.623Z,20.19
2022-08-18T00:19:45.674Z,20.05
2022-08-18T00:23:32.659Z,20.01
2022-08-18T00:27:15.810Z,19.93
2022-08-18T00:30:58.535Z,19.91
2022-08-18T00:34:41.303Z,19.88
2022-08-18T00:38:25.345Z,19.98
2022-08-18T00:42:28.919Z,19.99
2022-08-18T00:46:16.825Z,19.87
2022-08-18T00:49:59.743Z,19.86
2022-08-18T00:53:45.929Z,19.81
2022-08-18T00:57:32.354Z,19.81
2022-08-18T01:01:16.265Z,19.86
2022-08-18T01:05:01.861Z,19.90
2022-08-18T01:08:44.934Z,20.04
2022-08-18T01:12:45.858Z,19.93
2022-08-18T01:16:53.832Z,19.86
2022-08-18T01:21:02.105Z,19.92
2022-08-18T01:25:03.664Z,19.92
2022-08-18T01:28:49.489Z,19.95
2022-08-18T01:32:32.281Z,19.88
2022-08-18T01:36:17.702Z,19.72
2022-08-18T01:41:17.456Z,19.72
2022-08-18T01:44:11.726Z,19.72
2022-08-18T01:47:55.859Z,19.54
2022-08-18T01:51:41.445Z,19.40
2022-08-18T01:55:28.350Z,19.21
2022-08-18T01:59:14.585Z,19.15
2022-08-18T02:03:02.141Z,19.24
2022-08-18T02:06:47.771Z,19.14
2022-08-18T02:10:32.993Z,19.11
2022-08-18T02:14:15.759Z,19.14
2022-08-18T02:17:58.638Z,19.05
2022-08-18T02:21:41.391Z,19.03
2022-08-18T02:25:24.225Z,19.04
2022-08-18T02:29:09.585Z,18.98
2022-08-18T02:32:52.349Z,18.90
2022-08-18T02:36:35.097Z,18.80
2022-08-18T02:40:19.112Z,18.75
2022-08-18T02:44:02.019Z,18.69
2022-08-18T02:47:46.831Z,18.75
2022-08-18T02:51:29.592Z,18.70
2022-08-18T02:55:12.913Z,18.65
2022-08-18T02:59:00.923Z,18.54
2022-08-18T03:02:48.100Z,18.54
2022-08-18T03:06:31.588Z,18.50
2022-08-18T03:10:32.867Z,18.54
2022-08-18T03:14:17.122Z,18.52
2022-08-18T03:18:02.423Z,18.40
2022-08-18T03:21:46.720Z,18.41
2022-08-18T03:25:29.517Z,18.41
2022-08-18T03:29:13.092Z,18.33
2022-08-18T03:32:55.853Z,18.30
2022-08-18T03:36:40.361Z,18.22
2022-08-18T03:40:23.198Z,18.20
2022-08-18T03:44:06.558Z,18.21
2022-08-18T03:47:52.549Z,18.20
2022-08-18T03:51:35.404Z,18.14
2022-08-18T03:55:19.637Z,18.10
2022-08-18T03:59:04.890Z,18.08
2022-08-18T04:02:47.689Z,18.05
2022-08-18T04:06:32.482Z,18.04
2022-08-18T04:10:19.510Z,18.00
2022-08-18T04:14:04.058Z,17.99
2022-08-18T04:17:55.969Z,18.06
2022-08-18T04:21:46.573Z,18.17
2022-08-18T04:25:32.897Z,18.30
2022-08-18T04:29:21.097Z,18.37
2022-08-18T04:33:06.339Z,18.32
2022-08-18T04:36:49.293Z,18.29
2022-08-18T04:40:33.989Z,18.38
2022-08-18T04:44:18.330Z,18.40
2022-08-18T04:48:01.275Z,18.44
2022-08-18T04:52:34.400Z,18.49
2022-08-18T04:56:15.534Z,18.60
2022-08-18T05:00:05.136Z,18.66
2022-08-18T05:03:50.006Z,18.66
2022-08-18T05:07:33.854Z,18.74
2022-08-18T05:11:17.010Z,18.83
2022-08-18T05:14:59.765Z,18.89
2022-08-18T05:18:43.891Z,18.94
2022-08-18T05:22:30.705Z,19.03
2022-08-18T05:26:14.897Z,19.11
2022-08-18T05:29:57.675Z,19.20
2022-08-18T05:33:41.196Z,19.22
2022-08-18T05:37:28.787Z,19.35
2022-08-18T05:41:25.776Z,19.36
2022-08-18T05:45:11.774Z,19.43
2022-08-18T05:48:54.535Z,19.57
2022-08-18T05:52:42.170Z,19.71
2022-08-18T05:56:47.282Z,19.68
2022-08-18T06:00:31.120Z,19.68
2022-08-18T06:04:20.718Z,19.69
2022-08-18T06:08:09.389Z,19.74
2022-08-18T06:12:08.978Z,19.83
2022-08-18T06:15:56.386Z,19.86
2022-08-18T06:19:46.708Z,19.89
2022-08-18T06:23:37.356Z,19.92
2022-08-18T06:27:26.978Z,20.00
2022-08-18T06:31:18.324Z,19.86
2022-08-18T06:35:11.870Z,19.71
2022-08-18T06:39:04.909Z,19.57
2022-08-18T06:42:48.059Z,19.50
2022-08-18T06:46:36.667Z,19.72
2022-08-18T06:50:22.534Z,19.87
2022-08-18T06:54:08.203Z,19.89
2022-08-18T06:57:55.775Z,19.73
2022-08-18T07:01:42.182Z,19.70
2022-08-18T07:05:27.573Z,19.59
2022-08-18T07:09:24.103Z,19.54
2022-08-18T07:13:18.881Z,19.61
2022-08-18T07:17:09.728Z,19.49
2022-08-18T07:20:54.721Z,19.61
2022-08-18T07:24:41.891Z,19.53
2022-08-18T07:28:33.737Z,19.53
2022-08-18T07:32:21.599Z,19.67
2022-08-18T07:36:07.152Z,19.76
2022-08-18T07:39:56.438Z,20.00
2022-08-18T07:43:44.182Z,20.14
2022-08-18T07:47:29.116Z,20.39
2022-08-18T07:51:17.353Z,20.69
2022-08-18T07:55:07.678Z,20.83
2022-08-18T07:58:58.542Z,21.04
2022-08-18T08:02:50.131Z,21.25
2022-08-18T08:06:55.403Z,21.37
2022-08-18T08:10:52.765Z,21.55
2022-08-18T08:14:45.254Z,21.38
2022-08-18T08:18:36.498Z,21.32
2022-08-18T08:22:22.542Z,21.42
2022-08-18T08:26:25.125Z,21.52
2022-08-18T08:30:11.226Z,21.51
2022-08-18T08:34:03.952Z,21.38
2022-08-18T08:37:53.447Z,21.60
2022-08-18T08:41:45.611Z,21.92
2022-08-18T08:45:32.089Z,21.99
2022-08-18T08:49:24.974Z,21.90
2022-08-18T08:53:11.688Z,21.55
2022-08-18T08:56:57.917Z,21.65
2022-08-18T09:00:41.474Z,21.56
2022-08-18T09:04:32.271Z,21.56
2022-08-18T09:08:34.409Z,21.64
2022-08-18T09:12:43.405Z,21.53
2022-08-18T09:16:38.817Z,21.56
2022-08-18T09:20:54.785Z,21.71
2022-08-18T09:24:41.774Z,21.92
2022-08-18T09:28:56.255Z,22.15
2022-08-18T09:32:50.148Z,22.32
2022-08-18T09:36:43.377Z,22.40
2022-08-18T09:41:02.329Z,22.54
2022-08-18T09:45:04.245Z,22.51
2022-08-18T09:48:47.043Z,22.61
2022-08-18T09:52:58.900Z,22.77
2022-08-18T09:57:20.664Z,22.99
2022-08-18T10:01:22.716Z,22.99
2022-08-18T10:05:27.758Z,23.05
2022-08-18T10:17:55.977Z,23.42
2022-08-18T10:22:06.363Z,23.41
2022-08-18T10:25:49.375Z,23.46
2022-08-18T10:29:59.589Z,23.62
2022-08-18T10:34:19.393Z,23.68
2022-08-18T10:38:03.688Z,23.78
2022-08-18T10:41:58.071Z,23.71
2022-08-18T10:46:05.924Z,23.86
2022-08-18T10:49:51.534Z,24.14
2022-08-18T10:53:43.995Z,24.29
2022-08-18T10:57:34.310Z,24.44
2022-08-18T11:01:30.835Z,24.42
2022-08-18T11:05:21.699Z,24.42
2022-08-18T11:09:04.538Z,24.49
2022-08-18T11:13:07.729Z,24.46
2022-08-18T11:17:01.396Z,24.54
2022-08-18T11:20:47.532Z,24.68
2022-08-18T11:24:33.985Z,24.81
2022-08-18T11:28:18.745Z,24.96
2022-08-18T11:32:11.000Z,25.22
2022-08-18T11:35:58.449Z,25.33
2022-08-18T11:39:50.392Z,25.40
2022-08-18T11:43:40.838Z,25.55
2022-08-18T11:47:27.544Z,25.52
2022-08-18T11:51:23.471Z,25.70
2022-08-18T11:55:24.483Z,25.88
2022-08-18T11:59:09.464Z,26.00
2022-08-18T12:03:02.675Z,26.05
2022-08-18T12:07:04.529Z,26.05
2022-08-18T12:10:48.367Z,26.17
2022-08-18T12:14:36.795Z,26.29
2022-08-18T12:18:28.493Z,26.33
2022-08-18T12:22:18.612Z,26.41
2022-08-18T12:26:01.446Z,26.55
2022-08-18T12:29:44.705Z,26.66
2022-08-18T12:33:34.459Z,26.77
2022-08-18T12:37:58.383Z,26.90
2022-08-18T12:41:34.534Z,26.95
2022-08-18T12:45:17.577Z,26.96
2022-08-18T12:49:00.490Z,26.97
2022-08-18T12:52:49.601Z,26.98
2022-08-18T12:56:33.035Z,26.89
2022-08-18T13:00:18.876Z,26.86
2022-08-18T13:04:11.099Z,26.91
2022-08-18T13:07:56.435Z,26.99
2022-08-18T13:11:40.949Z,27.07
2022-08-18T13:15:26.136Z,27.16
2022-08-18T13:19:12.561Z,27.24
2022-08-18T13:22:56.798Z,27.32
2022-08-18T13:26:42.165Z,27.37
2022-08-18T13:30:30.816Z,27.25
2022-08-18T13:34:19.137Z,27.16
2022-08-18T13:38:12.482Z,27.05
2022-08-18T13:42:00.997Z,26.92
2022-08-18T13:46:04.158Z,26.78
2022-08-18T13:49:58.024Z,26.66
2022-08-18T13:53:58.878Z,26.52
2022-08-18T13:57:49.611Z,26.42
2022-08-18T14:01:44.433Z,26.36
2022-08-18T14:05:36.438Z,26.37
2022-08-18T14:09:38.272Z,26.45
2022-08-18T14:13:24.680Z,26.50
2022-08-18T14:17:08.058Z,26.52
2022-08-18T14:21:10.516Z,26.59
2022-08-18T14:25:14.346Z,26.71
2022-08-18T14:28:57.233Z,26.81
2022-08-18T14:32:48.948Z,26.84
2022-08-18T14:36:32.289Z,26.77
2022-08-18T14:40:20.073Z,26.71
2022-08-18T14:44:12.694Z,26.62
2022-08-18T14:47:56.863Z,26.59
2022-08-18T14:51:42.866Z,26.60
2022-08-18T14:55:27.004Z,26.61
2022-08-18T14:59:09.921Z,26.67
2022-08-18T15:02:52.714Z,26.71
2022-08-18T15:06:35.702Z,26.65
2022-08-18T15:10:19.958Z,26.52
2022-08-18T15:14:08.013Z,26.41
2022-08-18T15:17:52.520Z,26.29
2022-08-18T15:21:53.646Z,26.16
2022-08-18T15:25:45.906Z,26.00
2022-08-18T15:29:30.367Z,25.89
2022-08-18T15:33:14.311Z,25.87
2022-08-18T15:36:57.999Z,25.82
2022-08-18T15:40:57.290Z,25.75
2022-08-18T15:44:41.754Z,25.70
2022-08-18T15:48:29.505Z,25.63
2022-08-18T15:52:13.263Z,25.49
2022-08-18T15:56:04.320Z,25.39
2022-08-18T15:59:49.183Z,25.34
2022-08-18T16:03:33.536Z,25.28
2022-08-18T16:07:17.800Z,25.11
2022-08-18T16:11:08.389Z,24.98
2022-08-18T16:14:53.188Z,24.91
2022-08-18T16:18:35.919Z,24.83
2022-08-18T16:22:18.717Z,24.78
2022-08-18T16:26:04.883Z,24.78
2022-08-18T16:29:48.136Z,24.75
2022-08-18T16:33:32.303Z,24.76
2022-08-18T16:41:07.788Z,24.80
2022-08-18T16:44:51.615Z,24.72
2022-08-18T16:48:35.831Z,24.57
2022-08-18T16:52:19.668Z,24.50
2022-08-18T16:56:02.438Z,24.44
2022-08-18T17:00:02.785Z,24.37
2022-08-18T17:04:04.479Z,24.28
2022-08-18T17:07:56.472Z,24.15
2022-08-18T17:11:51.777Z,24.10
2022-08-18T17:15:35.225Z,24.00
2022-08-18T17:19:20.016Z,23.97
2022-08-18T17:23:03.275Z,23.52
2022-08-18T17:26:49.851Z,22.59
2022-08-18T17:30:37.227Z,21.71
2022-08-18T17:34:24.594Z,21.15
2022-08-18T17:38:13.978Z,20.73
2022-08-18T17:42:28.869Z,20.47
2022-08-18T17:46:17.738Z,20.39
2022-08-18T17:50:27.137Z,20.36
2022-08-18T17:54:19.080Z,20.37
2022-08-18T17:58:05.860Z,20.28
2022-08-18T18:02:09.115Z,20.13
2022-08-18T18:06:16.416Z,19.86
2022-08-18T18:10:05.972Z,19.62
2022-08-18T18:13:48.694Z,19.36
2022-08-18T18:17:37.508Z,19.29
2022-08-18T18:21:24.062Z,19.16
2022-08-18T18:25:34.779Z,19.06
2022-08-18T18:29:20.739Z,19.04
2022-08-18T18:33:08.117Z,19.04
2022-08-18T18:36:52.963Z,19.05
2022-08-18T18:40:37.848Z,18.88
2022-08-18T18:44:27.983Z,18.81
2022-08-18T18:48:45.077Z,18.78
2022-08-18T18:52:25.463Z,18.71
2022-08-18T18:56:19.952Z,18.68
2022-08-18T19:00:14.332Z,18.59
2022-08-18T19:04:05.024Z,18.52
2022-08-18T19:08:01.013Z,18.54
2022-08-18T19:11:56.492Z,18.55
2022-08-18T19:15:40.683Z,18.65
2022-08-18T19:19:37.138Z,18.68
2022-08-18T19:23:34.134Z,18.71
2022-08-18T19:27:34.187Z,18.74
2022-08-18T19:31:23.144Z,18.83
2022-08-18T19:35:12.431Z,18.79
2022-08-18T19:39:02.178Z,18.83
2022-08-18T19:42:53.158Z,18.80
2022-08-18T19:46:44.131Z,18.74
2022-08-18T19:50:32.652Z,18.75
2022-08-18T19:54:33.953Z,18.71
2022-08-18T19:58:29.809Z,18.64
2022-08-18T20:02:25.308Z,18.63
2022-08-18T20:06:34.226Z,18.61
2022-08-18T20:10:42.771Z,18.67
2022-08-18T20:14:25.670Z,18.63
2022-08-18T20:18:21.370Z,18.59
2022-08-18T20:22:05.905Z,18.61
2022-08-18T20:25:50.179Z,18.62
2022-08-18T20:29:46.231Z,18.63
2022-08-18T20:33:33.600Z,18.59
2022-08-18T20:37:25.464Z,18.62
2022-08-18T20:41:42.323Z,18.60
2022-08-18T20:45:29.349Z,18.62
2022-08-18T20:49:18.513Z,18.52
2022-08-18T20:53:08.487Z,18.56
2022-08-18T20:56:55.033Z,18.49
2022-08-18T21:00:41.746Z,18.50
2022-08-18T21:04:37.356Z,18.51
2022-08-18T21:08:27.734Z,18.51
2022-08-18T21:12:14.623Z,18.54
2022-08-18T21:15:57.597Z,18.52
2022-08-18T21:19:43.419Z,18.52
2022-08-18T21:23:30.587Z,18.56
2022-08-18T21:27:23.353Z,18.58
2022-08-18T21:31:42.838Z,18.56
2022-08-18T21:35:22.594Z,18.58
2022-08-18T21:39:10.537Z,18.56
2022-08-18T21:42:54.928Z,18.49
2022-08-18T21:46:37.739Z,18.47
2022-08-18T21:50:23.309Z,18.48
2022-08-18T21:54:06.200Z,18.45
2022-08-18T21:57:52.851Z,18.43
2022-08-18T22:01:38.304Z,18.30
2022-08-18T22:05:30.097Z,18.31
2022-08-18T22:09:53.055Z,18.32
2022-08-18T22:14:00.135Z,18.33
2022-08-18T22:17:54.477Z,18.35
2022-08-18T22:21:38.416Z,18.30
2022-08-18T22:25:22.209Z,18.22
2022-08-18T22:29:14.251Z,18.35
2022-08-18T22:32:58.336Z,18.40
2022-08-18T22:36:47.164Z,18.28
2022-08-18T22:40:29.943Z,18.22
2022-08-18T22:44:12.753Z,18.14
2022-08-18T22:47:55.598Z,18.11
2022-08-18T22:51:40.251Z,18.06
2022-08-18T22:55:24.168Z,18.03
2022-08-18T22:59:15.620Z,18.07
2022-08-18T23:03:00.165Z,18.15
2022-08-18T23:06:51.024Z,18.11
2022-08-18T23:10:33.768Z,18.17
2022-08-18T23:14:16.942Z,18.10
2022-08-18T23:17:59.716Z,18.08
2022-08-18T23:21:44.529Z,17.96
2022-08-18T23:25:27.601Z,17.91
2022-08-18T23:29:11.724Z,17.92
2022-08-18T23:32:54.995Z,17.93
2022-08-18T23:36:45.149Z,18.02
2022-08-18T23:40:30.648Z,17.97
2022-08-18T23:44:13.805Z,17.96
2022-08-18T23:47:58.418Z,18.04
2022-08-18T23:51:44.229Z,18.03
2022-08-18T23:55:26.959Z,18.04
2022-08-18T23:59:11.369Z,18.10
